sensor_id;sensor_type;location;lat;lon;timestamp;P1;durP1;ratioP1;P2;durP2;ratioP2
13588;SDS011;6865;52.552;13.434;2024-03-02T00:01:15;56.03;;;36.73;;
13588;SDS011;6865;52.552;13.434;2024-03-02T00:03:42;54.80;;;36.60;;
13588;SDS011;6865;52.552;13.434;2024-03-02T00:06:10;59.73;;;37.73;;
13588;SDS011;6865;52.552;13.434;2024-03-02T00:08:36;54.83;;;37.07;;
13588;SDS011;6865;52.552;13.434;2024-03-02T00:11:03;61.93;;;38.43;;
13588;SDS011;6865;52.552;13.434;2024-03-02T00:13:30;59.87;;;39.57;;
13588;SDS011;6865;52.552;13.434;2024-03-02T00:15:58;60.60;;;39.57;;
13588;SDS011;6865;52.552;13.434;2024-03-02T00:18:32;58.63;;;37.20;;
13588;SDS011;6865;52.552;13.434;2024-03-02T00:21:01;60.43;;;38.77;;
13588;SDS011;6865;52.552;13.434;2024-03-02T00:23:32;62.07;;;40.73;;
13588;SDS011;6865;52.552;13.434;2024-03-02T00:26:01;61.80;;;38.97;;
13588;SDS011;6865;52.552;13.434;2024-03-02T00:28:34;63.13;;;39.37;;
13588;SDS011;6865;52.552;13.434;2024-03-02T00:31:03;59.50;;;37.93;;
13588;SDS011;6865;52.552;13.434;2024-03-02T00:33:41;59.10;;;38.83;;
13588;SDS011;6865;52.552;13.434;2024-03-02T00:36:10;60.57;;;39.47;;
13588;SDS011;6865;52.552;13.434;2024-03-02T00:38:56;57.60;;;38.03;;
13588;SDS011;6865;52.552;13.434;2024-03-02T00:41:24;57.50;;;38.37;;
13588;SDS011;6865;52.552;13.434;2024-03-02T00:43:56;56.80;;;37.53;;
13588;SDS011;6865;52.552;13.434;2024-03-02T00:46:35;53.50;;;36.47;;
13588;SDS011;6865;52.552;13.434;2024-03-02T00:49:03;66.53;;;40.30;;
13588;SDS011;6865;52.552;13.434;2024-03-02T00:51:32;62.77;;;39.60;;
13588;SDS011;6865;52.552;13.434;2024-03-02T00:54:04;58.30;;;36.40;;
13588;SDS011;6865;52.552;13.434;2024-03-02T00:56:32;58.50;;;37.90;;
13588;SDS011;6865;52.552;13.434;2024-03-02T00:59:00;59.50;;;37.83;;
13588;SDS011;6865;52.552;13.434;2024-03-02T01:01:27;60.27;;;37.13;;
13588;SDS011;6865;52.552;13.434;2024-03-02T01:03:53;56.80;;;37.43;;
13588;SDS011;6865;52.552;13.434;2024-03-02T01:06:20;58.97;;;36.83;;
13588;SDS011;6865;52.552;13.434;2024-03-02T01:08:49;57.93;;;37.17;;
13588;SDS011;6865;52.552;13.434;2024-03-02T01:11:18;58.47;;;38.33;;
13588;SDS011;6865;52.552;13.434;2024-03-02T01:13:48;59.47;;;37.57;;
13588;SDS011;6865;52.552;13.434;2024-03-02T01:16:15;58.63;;;38.13;;
13588;SDS011;6865;52.552;13.434;2024-03-02T01:18:42;56.23;;;37.57;;
13588;SDS011;6865;52.552;13.434;2024-03-02T01:21:09;57.90;;;36.87;;
13588;SDS011;6865;52.552;13.434;2024-03-02T01:23:35;55.13;;;36.57;;
13588;SDS011;6865;52.552;13.434;2024-03-02T01:26:02;54.60;;;35.90;;
13588;SDS011;6865;52.552;13.434;2024-03-02T01:28:29;59.20;;;38.10;;
13588;SDS011;6865;52.552;13.434;2024-03-02T01:30:55;54.60;;;35.07;;
13588;SDS011;6865;52.552;13.434;2024-03-02T01:33:22;58.37;;;35.87;;
13588;SDS011;6865;52.552;13.434;2024-03-02T01:35:49;52.93;;;36.20;;
13588;SDS011;6865;52.552;13.434;2024-03-02T01:38:16;53.67;;;35.30;;
13588;SDS011;6865;52.552;13.434;2024-03-02T01:40:43;52.63;;;34.97;;
13588;SDS011;6865;52.552;13.434;2024-03-02T01:43:10;54.07;;;35.50;;
13588;SDS011;6865;52.552;13.434;2024-03-02T01:45:37;52.33;;;35.10;;
13588;SDS011;6865;52.552;13.434;2024-03-02T01:48:04;48.67;;;34.40;;
13588;SDS011;6865;52.552;13.434;2024-03-02T01:50:33;56.53;;;36.10;;
13588;SDS011;6865;52.552;13.434;2024-03-02T01:53:00;48.47;;;34.37;;
13588;SDS011;6865;52.552;13.434;2024-03-02T01:55:29;50.37;;;33.67;;
13588;SDS011;6865;52.552;13.434;2024-03-02T01:57:56;51.00;;;34.60;;
13588;SDS011;6865;52.552;13.434;2024-03-02T02:00:24;47.40;;;32.87;;
13588;SDS011;6865;52.552;13.434;2024-03-02T02:02:52;49.20;;;33.87;;
13588;SDS011;6865;52.552;13.434;2024-03-02T02:05:19;49.60;;;33.37;;
13588;SDS011;6865;52.552;13.434;2024-03-02T02:07:46;51.43;;;35.60;;
13588;SDS011;6865;52.552;13.434;2024-03-02T02:10:13;48.43;;;34.50;;
13588;SDS011;6865;52.552;13.434;2024-03-02T02:12:40;48.83;;;34.37;;
13588;SDS011;6865;52.552;13.434;2024-03-02T02:15:28;45.33;;;32.50;;
13588;SDS011;6865;52.552;13.434;2024-03-02T02:17:55;53.53;;;34.47;;
13588;SDS011;6865;52.552;13.434;2024-03-02T02:20:23;48.70;;;34.70;;
13588;SDS011;6865;52.552;13.434;2024-03-02T02:22:54;49.23;;;34.40;;
13588;SDS011;6865;52.552;13.434;2024-03-02T02:25:21;53.33;;;34.40;;
13588;SDS011;6865;52.552;13.434;2024-03-02T02:27:47;50.93;;;34.13;;
13588;SDS011;6865;52.552;13.434;2024-03-02T02:30:18;46.03;;;33.40;;
13588;SDS011;6865;52.552;13.434;2024-03-02T02:32:52;46.77;;;33.60;;
13588;SDS011;6865;52.552;13.434;2024-03-02T02:35:19;48.33;;;34.40;;
13588;SDS011;6865;52.552;13.434;2024-03-02T02:37:46;48.73;;;33.77;;
13588;SDS011;6865;52.552;13.434;2024-03-02T02:40:13;47.33;;;33.43;;
13588;SDS011;6865;52.552;13.434;2024-03-02T02:42:40;51.20;;;34.40;;
13588;SDS011;6865;52.552;13.434;2024-03-02T02:45:07;49.97;;;35.03;;
13588;SDS011;6865;52.552;13.434;2024-03-02T02:47:34;53.27;;;35.17;;
13588;SDS011;6865;52.552;13.434;2024-03-02T02:50:04;54.63;;;37.07;;
13588;SDS011;6865;52.552;13.434;2024-03-02T02:52:34;52.70;;;35.77;;
13588;SDS011;6865;52.552;13.434;2024-03-02T02:55:03;50.83;;;34.87;;
13588;SDS011;6865;52.552;13.434;2024-03-02T02:57:31;48.83;;;34.60;;
13588;SDS011;6865;52.552;13.434;2024-03-02T03:00:10;50.00;;;35.13;;
13588;SDS011;6865;52.552;13.434;2024-03-02T03:02:43;53.70;;;37.43;;
13588;SDS011;6865;52.552;13.434;2024-03-02T03:05:16;55.27;;;37.37;;
13588;SDS011;6865;52.552;13.434;2024-03-02T03:07:43;54.20;;;35.60;;
13588;SDS011;6865;52.552;13.434;2024-03-02T03:10:11;55.30;;;36.37;;
13588;SDS011;6865;52.552;13.434;2024-03-02T03:12:37;52.00;;;36.67;;
13588;SDS011;6865;52.552;13.434;2024-03-02T03:15:04;53.40;;;36.50;;
13588;SDS011;6865;52.552;13.434;2024-03-02T03:17:33;50.33;;;36.47;;
13588;SDS011;6865;52.552;13.434;2024-03-02T03:20:00;51.73;;;36.83;;
13588;SDS011;6865;52.552;13.434;2024-03-02T03:22:27;47.23;;;33.63;;
13588;SDS011;6865;52.552;13.434;2024-03-02T03:24:54;53.20;;;35.77;;
13588;SDS011;6865;52.552;13.434;2024-03-02T03:27:20;52.47;;;35.63;;
13588;SDS011;6865;52.552;13.434;2024-03-02T03:29:47;50.43;;;35.97;;
13588;SDS011;6865;52.552;13.434;2024-03-02T03:32:14;48.03;;;33.20;;
13588;SDS011;6865;52.552;13.434;2024-03-02T03:34:41;50.27;;;35.33;;
13588;SDS011;6865;52.552;13.434;2024-03-02T03:37:08;46.93;;;34.83;;
13588;SDS011;6865;52.552;13.434;2024-03-02T03:39:36;52.43;;;35.00;;
13588;SDS011;6865;52.552;13.434;2024-03-02T03:42:03;52.13;;;34.57;;
13588;SDS011;6865;52.552;13.434;2024-03-02T03:44:29;54.23;;;36.23;;
13588;SDS011;6865;52.552;13.434;2024-03-02T03:46:56;48.83;;;34.37;;
13588;SDS011;6865;52.552;13.434;2024-03-02T03:49:23;46.43;;;33.73;;
13588;SDS011;6865;52.552;13.434;2024-03-02T03:51:50;48.80;;;33.77;;
13588;SDS011;6865;52.552;13.434;2024-03-02T03:54:16;49.53;;;33.63;;
13588;SDS011;6865;52.552;13.434;2024-03-02T03:56:43;48.43;;;32.73;;
13588;SDS011;6865;52.552;13.434;2024-03-02T03:59:10;40.57;;;31.30;;
13588;SDS011;6865;52.552;13.434;2024-03-02T04:01:37;47.87;;;33.30;;
13588;SDS011;6865;52.552;13.434;2024-03-02T04:04:04;44.60;;;32.30;;
13588;SDS011;6865;52.552;13.434;2024-03-02T04:06:30;52.73;;;33.00;;
13588;SDS011;6865;52.552;13.434;2024-03-02T04:08:58;44.70;;;30.87;;
13588;SDS011;6865;52.552;13.434;2024-03-02T04:11:25;46.03;;;30.97;;
13588;SDS011;6865;52.552;13.434;2024-03-02T04:13:51;42.73;;;31.20;;
13588;SDS011;6865;52.552;13.434;2024-03-02T04:16:21;43.47;;;30.30;;
13588;SDS011;6865;52.552;13.434;2024-03-02T04:18:47;49.77;;;31.13;;
13588;SDS011;6865;52.552;13.434;2024-03-02T04:21:14;43.33;;;30.13;;
13588;SDS011;6865;52.552;13.434;2024-03-02T04:23:41;45.20;;;30.83;;
13588;SDS011;6865;52.552;13.434;2024-03-02T04:26:07;44.60;;;30.13;;
13588;SDS011;6865;52.552;13.434;2024-03-02T04:28:34;40.43;;;30.47;;
13588;SDS011;6865;52.552;13.434;2024-03-02T04:31:01;41.80;;;30.03;;
13588;SDS011;6865;52.552;13.434;2024-03-02T04:33:28;43.17;;;31.50;;
13588;SDS011;6865;52.552;13.434;2024-03-02T04:35:54;44.43;;;30.57;;
13588;SDS011;6865;52.552;13.434;2024-03-02T04:38:21;39.63;;;28.83;;
13588;SDS011;6865;52.552;13.434;2024-03-02T04:40:48;44.47;;;30.77;;
13588;SDS011;6865;52.552;13.434;2024-03-02T04:43:14;42.33;;;29.60;;
13588;SDS011;6865;52.552;13.434;2024-03-02T04:45:42;40.03;;;28.80;;
13588;SDS011;6865;52.552;13.434;2024-03-02T04:48:09;42.10;;;29.17;;
13588;SDS011;6865;52.552;13.434;2024-03-02T04:50:36;38.87;;;28.83;;
13588;SDS011;6865;52.552;13.434;2024-03-02T04:53:02;41.73;;;29.00;;
13588;SDS011;6865;52.552;13.434;2024-03-02T04:55:29;43.37;;;29.63;;
13588;SDS011;6865;52.552;13.434;2024-03-02T04:58:05;41.13;;;29.10;;
13588;SDS011;6865;52.552;13.434;2024-03-02T05:00:33;45.37;;;30.33;;
13588;SDS011;6865;52.552;13.434;2024-03-02T05:03:00;40.33;;;29.50;;
13588;SDS011;6865;52.552;13.434;2024-03-02T05:05:27;41.90;;;28.77;;
13588;SDS011;6865;52.552;13.434;2024-03-02T05:07:54;39.87;;;29.10;;
13588;SDS011;6865;52.552;13.434;2024-03-02T05:10:21;41.50;;;30.73;;
13588;SDS011;6865;52.552;13.434;2024-03-02T05:12:48;41.90;;;28.67;;
13588;SDS011;6865;52.552;13.434;2024-03-02T05:15:26;44.27;;;30.77;;
13588;SDS011;6865;52.552;13.434;2024-03-02T05:17:53;43.90;;;31.23;;
13588;SDS011;6865;52.552;13.434;2024-03-02T05:20:19;40.10;;;29.97;;
13588;SDS011;6865;52.552;13.434;2024-03-02T05:22:46;45.67;;;30.83;;
13588;SDS011;6865;52.552;13.434;2024-03-02T05:25:14;48.77;;;32.23;;
13588;SDS011;6865;52.552;13.434;2024-03-02T05:27:41;41.80;;;30.43;;
13588;SDS011;6865;52.552;13.434;2024-03-02T05:30:08;48.03;;;30.90;;
13588;SDS011;6865;52.552;13.434;2024-03-02T05:32:36;46.93;;;31.63;;
13588;SDS011;6865;52.552;13.434;2024-03-02T05:35:03;44.57;;;31.00;;
13588;SDS011;6865;52.552;13.434;2024-03-02T05:37:31;44.67;;;31.27;;
13588;SDS011;6865;52.552;13.434;2024-03-02T05:39:58;42.10;;;30.93;;
13588;SDS011;6865;52.552;13.434;2024-03-02T05:42:26;47.13;;;32.23;;
13588;SDS011;6865;52.552;13.434;2024-03-02T05:44:54;50.80;;;33.53;;
13588;SDS011;6865;52.552;13.434;2024-03-02T05:47:20;49.00;;;32.33;;
13588;SDS011;6865;52.552;13.434;2024-03-02T05:49:47;47.03;;;32.07;;
13588;SDS011;6865;52.552;13.434;2024-03-02T05:52:14;49.07;;;33.80;;
13588;SDS011;6865;52.552;13.434;2024-03-02T05:54:40;45.30;;;31.73;;
13588;SDS011;6865;52.552;13.434;2024-03-02T05:57:07;49.80;;;33.77;;
13588;SDS011;6865;52.552;13.434;2024-03-02T05:59:43;47.47;;;33.47;;
13588;SDS011;6865;52.552;13.434;2024-03-02T06:02:10;52.20;;;33.97;;
13588;SDS011;6865;52.552;13.434;2024-03-02T06:04:37;51.47;;;34.47;;
13588;SDS011;6865;52.552;13.434;2024-03-02T06:07:04;54.00;;;34.30;;
13588;SDS011;6865;52.552;13.434;2024-03-02T06:09:31;54.47;;;36.50;;
13588;SDS011;6865;52.552;13.434;2024-03-02T06:11:58;53.57;;;35.83;;
13588;SDS011;6865;52.552;13.434;2024-03-02T06:14:25;58.33;;;37.83;;
13588;SDS011;6865;52.552;13.434;2024-03-02T06:16:51;55.50;;;36.27;;
13588;SDS011;6865;52.552;13.434;2024-03-02T06:19:18;56.73;;;36.60;;
13588;SDS011;6865;52.552;13.434;2024-03-02T06:21:44;57.03;;;37.40;;
13588;SDS011;6865;52.552;13.434;2024-03-02T06:24:11;56.23;;;37.87;;
13588;SDS011;6865;52.552;13.434;2024-03-02T06:26:38;58.37;;;36.53;;
13588;SDS011;6865;52.552;13.434;2024-03-02T06:29:05;58.10;;;37.13;;
13588;SDS011;6865;52.552;13.434;2024-03-02T06:31:32;55.67;;;37.10;;
13588;SDS011;6865;52.552;13.434;2024-03-02T06:33:59;57.07;;;35.83;;
13588;SDS011;6865;52.552;13.434;2024-03-02T06:36:26;56.27;;;37.83;;
13588;SDS011;6865;52.552;13.434;2024-03-02T06:38:52;52.37;;;34.73;;
13588;SDS011;6865;52.552;13.434;2024-03-02T06:41:19;51.63;;;34.10;;
13588;SDS011;6865;52.552;13.434;2024-03-02T06:43:46;55.10;;;36.50;;
13588;SDS011;6865;52.552;13.434;2024-03-02T06:46:12;56.00;;;36.90;;
13588;SDS011;6865;52.552;13.434;2024-03-02T06:48:41;54.63;;;35.43;;
13588;SDS011;6865;52.552;13.434;2024-03-02T06:51:08;52.73;;;35.70;;
13588;SDS011;6865;52.552;13.434;2024-03-02T06:53:34;49.97;;;34.37;;
13588;SDS011;6865;52.552;13.434;2024-03-02T06:56:01;55.37;;;34.47;;
13588;SDS011;6865;52.552;13.434;2024-03-02T06:58:28;55.97;;;34.83;;
13588;SDS011;6865;52.552;13.434;2024-03-02T07:00:55;52.90;;;35.10;;
13588;SDS011;6865;52.552;13.434;2024-03-02T07:03:21;52.03;;;34.53;;
13588;SDS011;6865;52.552;13.434;2024-03-02T07:05:48;52.00;;;34.80;;
13588;SDS011;6865;52.552;13.434;2024-03-02T07:08:15;50.00;;;34.47;;
13588;SDS011;6865;52.552;13.434;2024-03-02T07:10:42;55.90;;;33.70;;
13588;SDS011;6865;52.552;13.434;2024-03-02T07:13:08;48.77;;;33.33;;
13588;SDS011;6865;52.552;13.434;2024-03-02T07:15:35;51.97;;;35.50;;
13588;SDS011;6865;52.552;13.434;2024-03-02T07:18:20;53.40;;;35.37;;
13588;SDS011;6865;52.552;13.434;2024-03-02T07:20:47;56.70;;;34.50;;
13588;SDS011;6865;52.552;13.434;2024-03-02T07:23:15;51.77;;;34.93;;
13588;SDS011;6865;52.552;13.434;2024-03-02T07:25:42;51.33;;;34.60;;
13588;SDS011;6865;52.552;13.434;2024-03-02T07:28:12;51.60;;;34.40;;
13588;SDS011;6865;52.552;13.434;2024-03-02T07:30:38;54.40;;;35.87;;
13588;SDS011;6865;52.552;13.434;2024-03-02T07:33:06;55.07;;;34.93;;
13588;SDS011;6865;52.552;13.434;2024-03-02T07:35:33;53.87;;;34.77;;
13588;SDS011;6865;52.552;13.434;2024-03-02T07:38:00;55.00;;;35.83;;
13588;SDS011;6865;52.552;13.434;2024-03-02T07:40:26;51.77;;;35.20;;
13588;SDS011;6865;52.552;13.434;2024-03-02T07:42:53;49.83;;;35.13;;
13588;SDS011;6865;52.552;13.434;2024-03-02T07:45:21;50.30;;;34.73;;
13588;SDS011;6865;52.552;13.434;2024-03-02T07:47:48;54.13;;;34.77;;
13588;SDS011;6865;52.552;13.434;2024-03-02T07:50:16;52.50;;;35.50;;
13588;SDS011;6865;52.552;13.434;2024-03-02T07:52:43;48.90;;;34.63;;
13588;SDS011;6865;52.552;13.434;2024-03-02T07:55:10;52.87;;;35.07;;
13588;SDS011;6865;52.552;13.434;2024-03-02T07:57:36;50.23;;;35.50;;
13588;SDS011;6865;52.552;13.434;2024-03-02T08:00:03;49.57;;;33.67;;
13588;SDS011;6865;52.552;13.434;2024-03-02T08:02:33;45.93;;;32.03;;
13588;SDS011;6865;52.552;13.434;2024-03-02T08:05:01;48.67;;;31.93;;
13588;SDS011;6865;52.552;13.434;2024-03-02T08:07:27;54.07;;;34.37;;
13588;SDS011;6865;52.552;13.434;2024-03-02T08:09:54;50.93;;;34.47;;
13588;SDS011;6865;52.552;13.434;2024-03-02T08:12:21;52.60;;;33.27;;
13588;SDS011;6865;52.552;13.434;2024-03-02T08:14:49;50.30;;;34.53;;
13588;SDS011;6865;52.552;13.434;2024-03-02T08:17:16;50.70;;;34.30;;
13588;SDS011;6865;52.552;13.434;2024-03-02T08:19:43;51.07;;;34.47;;
13588;SDS011;6865;52.552;13.434;2024-03-02T08:22:10;48.93;;;33.60;;
13588;SDS011;6865;52.552;13.434;2024-03-02T08:24:37;50.73;;;34.20;;
13588;SDS011;6865;52.552;13.434;2024-03-02T08:27:04;50.97;;;33.63;;
13588;SDS011;6865;52.552;13.434;2024-03-02T08:29:33;49.77;;;34.33;;
13588;SDS011;6865;52.552;13.434;2024-03-02T08:32:15;46.83;;;32.27;;
13588;SDS011;6865;52.552;13.434;2024-03-02T08:34:43;53.30;;;35.03;;
13588;SDS011;6865;52.552;13.434;2024-03-02T08:37:10;50.13;;;32.53;;
13588;SDS011;6865;52.552;13.434;2024-03-02T08:39:37;48.23;;;32.77;;
13588;SDS011;6865;52.552;13.434;2024-03-02T08:42:03;50.17;;;32.43;;
13588;SDS011;6865;52.552;13.434;2024-03-02T08:44:30;50.03;;;32.20;;
13588;SDS011;6865;52.552;13.434;2024-03-02T08:46:57;50.43;;;32.37;;
13588;SDS011;6865;52.552;13.434;2024-03-02T08:49:24;50.07;;;31.70;;
13588;SDS011;6865;52.552;13.434;2024-03-02T08:51:51;44.27;;;31.00;;
13588;SDS011;6865;52.552;13.434;2024-03-02T08:54:21;48.63;;;31.23;;
13588;SDS011;6865;52.552;13.434;2024-03-02T08:56:48;47.33;;;30.83;;
13588;SDS011;6865;52.552;13.434;2024-03-02T08:59:16;46.03;;;30.90;;
13588;SDS011;6865;52.552;13.434;2024-03-02T09:01:43;45.67;;;31.10;;
13588;SDS011;6865;52.552;13.434;2024-03-02T09:04:11;48.03;;;32.90;;
13588;SDS011;6865;52.552;13.434;2024-03-02T09:06:38;45.43;;;29.50;;
13588;SDS011;6865;52.552;13.434;2024-03-02T09:09:04;49.43;;;30.57;;
13588;SDS011;6865;52.552;13.434;2024-03-02T09:11:31;47.67;;;31.27;;
13588;SDS011;6865;52.552;13.434;2024-03-02T09:13:58;46.97;;;31.50;;
13588;SDS011;6865;52.552;13.434;2024-03-02T09:16:25;42.83;;;29.40;;
13588;SDS011;6865;52.552;13.434;2024-03-02T09:18:57;47.80;;;32.07;;
13588;SDS011;6865;52.552;13.434;2024-03-02T09:21:24;45.97;;;32.17;;
13588;SDS011;6865;52.552;13.434;2024-03-02T09:23:51;47.47;;;32.27;;
13588;SDS011;6865;52.552;13.434;2024-03-02T09:26:18;53.53;;;33.37;;
13588;SDS011;6865;52.552;13.434;2024-03-02T09:28:46;46.67;;;33.00;;
13588;SDS011;6865;52.552;13.434;2024-03-02T09:31:13;50.23;;;33.90;;
13588;SDS011;6865;52.552;13.434;2024-03-02T09:33:40;50.10;;;33.60;;
13588;SDS011;6865;52.552;13.434;2024-03-02T09:36:25;47.13;;;33.23;;
13588;SDS011;6865;52.552;13.434;2024-03-02T09:38:52;49.00;;;33.37;;
13588;SDS011;6865;52.552;13.434;2024-03-02T09:41:19;48.00;;;31.90;;
13588;SDS011;6865;52.552;13.434;2024-03-02T09:43:46;49.70;;;32.03;;
13588;SDS011;6865;52.552;13.434;2024-03-02T09:46:13;46.37;;;30.27;;
13588;SDS011;6865;52.552;13.434;2024-03-02T09:48:40;47.97;;;31.70;;
13588;SDS011;6865;52.552;13.434;2024-03-02T09:51:09;47.27;;;32.13;;
13588;SDS011;6865;52.552;13.434;2024-03-02T09:53:37;46.17;;;31.00;;
13588;SDS011;6865;52.552;13.434;2024-03-02T09:56:04;45.50;;;29.97;;
13588;SDS011;6865;52.552;13.434;2024-03-02T09:58:31;45.83;;;28.83;;
13588;SDS011;6865;52.552;13.434;2024-03-02T10:00:58;41.50;;;29.73;;
13588;SDS011;6865;52.552;13.434;2024-03-02T10:03:25;42.97;;;29.77;;
13588;SDS011;6865;52.552;13.434;2024-03-02T10:05:55;42.20;;;29.53;;
13588;SDS011;6865;52.552;13.434;2024-03-02T10:08:21;40.30;;;27.90;;
13588;SDS011;6865;52.552;13.434;2024-03-02T10:10:48;43.00;;;28.20;;
13588;SDS011;6865;52.552;13.434;2024-03-02T10:13:15;43.57;;;29.30;;
13588;SDS011;6865;52.552;13.434;2024-03-02T10:15:43;41.43;;;28.37;;
13588;SDS011;6865;52.552;13.434;2024-03-02T10:18:10;41.87;;;28.70;;
13588;SDS011;6865;52.552;13.434;2024-03-02T10:20:42;38.93;;;27.33;;
13588;SDS011;6865;52.552;13.434;2024-03-02T10:23:15;38.23;;;26.77;;
13588;SDS011;6865;52.552;13.434;2024-03-02T10:25:43;36.93;;;25.07;;
13588;SDS011;6865;52.552;13.434;2024-03-02T10:28:23;37.80;;;25.77;;
13588;SDS011;6865;52.552;13.434;2024-03-02T10:30:49;36.10;;;26.17;;
13588;SDS011;6865;52.552;13.434;2024-03-02T10:33:18;38.93;;;26.30;;
13588;SDS011;6865;52.552;13.434;2024-03-02T10:35:45;35.23;;;24.03;;
13588;SDS011;6865;52.552;13.434;2024-03-02T10:38:16;32.37;;;24.50;;
13588;SDS011;6865;52.552;13.434;2024-03-02T10:40:46;33.30;;;23.77;;
13588;SDS011;6865;52.552;13.434;2024-03-02T10:43:14;36.57;;;24.30;;
13588;SDS011;6865;52.552;13.434;2024-03-02T10:45:42;33.23;;;23.43;;
13588;SDS011;6865;52.552;13.434;2024-03-02T10:48:10;30.27;;;21.70;;
13588;SDS011;6865;52.552;13.434;2024-03-02T10:50:37;29.33;;;21.67;;
13588;SDS011;6865;52.552;13.434;2024-03-02T10:53:03;31.70;;;21.33;;
13588;SDS011;6865;52.552;13.434;2024-03-02T10:55:32;28.50;;;20.20;;
13588;SDS011;6865;52.552;13.434;2024-03-02T10:58:00;26.60;;;19.60;;
13588;SDS011;6865;52.552;13.434;2024-03-02T11:00:33;28.03;;;20.37;;
13588;SDS011;6865;52.552;13.434;2024-03-02T11:03:03;30.23;;;20.90;;
13588;SDS011;6865;52.552;13.434;2024-03-02T11:05:41;29.90;;;20.87;;
13588;SDS011;6865;52.552;13.434;2024-03-02T11:08:13;27.83;;;20.20;;
13588;SDS011;6865;52.552;13.434;2024-03-02T11:10:48;27.97;;;18.73;;
13588;SDS011;6865;52.552;13.434;2024-03-02T11:13:22;27.07;;;19.00;;
13588;SDS011;6865;52.552;13.434;2024-03-02T11:15:58;31.07;;;18.70;;
13588;SDS011;6865;52.552;13.434;2024-03-02T11:18:29;23.57;;;17.07;;
13588;SDS011;6865;52.552;13.434;2024-03-02T11:20:57;25.13;;;17.53;;
13588;SDS011;6865;52.552;13.434;2024-03-02T11:23:32;27.23;;;18.97;;
13588;SDS011;6865;52.552;13.434;2024-03-02T11:28:46;25.40;;;17.40;;
13588;SDS011;6865;52.552;13.434;2024-03-02T11:31:13;28.00;;;17.50;;
13588;SDS011;6865;52.552;13.434;2024-03-02T11:33:40;26.63;;;17.77;;
13588;SDS011;6865;52.552;13.434;2024-03-02T11:36:07;27.50;;;16.93;;
13588;SDS011;6865;52.552;13.434;2024-03-02T11:38:37;24.20;;;16.67;;
13588;SDS011;6865;52.552;13.434;2024-03-02T11:41:07;25.57;;;16.97;;
13588;SDS011;6865;52.552;13.434;2024-03-02T11:43:38;26.67;;;17.20;;
13588;SDS011;6865;52.552;13.434;2024-03-02T11:46:07;25.07;;;17.33;;
13588;SDS011;6865;52.552;13.434;2024-03-02T11:48:35;23.87;;;17.13;;
13588;SDS011;6865;52.552;13.434;2024-03-02T11:51:05;25.40;;;17.07;;
13588;SDS011;6865;52.552;13.434;2024-03-02T11:53:32;24.73;;;17.50;;
13588;SDS011;6865;52.552;13.434;2024-03-02T11:56:02;24.07;;;17.57;;
13588;SDS011;6865;52.552;13.434;2024-03-02T11:58:29;28.20;;;18.73;;
13588;SDS011;6865;52.552;13.434;2024-03-02T12:00:56;24.03;;;17.90;;
13588;SDS011;6865;52.552;13.434;2024-03-02T12:03:24;25.47;;;18.70;;
13588;SDS011;6865;52.552;13.434;2024-03-02T12:05:53;25.40;;;18.33;;
13588;SDS011;6865;52.552;13.434;2024-03-02T12:08:20;28.63;;;18.57;;
13588;SDS011;6865;52.552;13.434;2024-03-02T12:10:58;24.27;;;17.70;;
13588;SDS011;6865;52.552;13.434;2024-03-02T12:13:25;25.70;;;18.00;;
13588;SDS011;6865;52.552;13.434;2024-03-02T12:15:53;24.30;;;16.13;;
13588;SDS011;6865;52.552;13.434;2024-03-02T12:18:22;23.93;;;16.87;;
13588;SDS011;6865;52.552;13.434;2024-03-02T12:20:49;22.73;;;16.97;;
13588;SDS011;6865;52.552;13.434;2024-03-02T12:23:24;24.30;;;17.53;;
13588;SDS011;6865;52.552;13.434;2024-03-02T12:25:51;21.33;;;15.87;;
13588;SDS011;6865;52.552;13.434;2024-03-02T12:28:18;20.70;;;15.10;;
13588;SDS011;6865;52.552;13.434;2024-03-02T12:30:45;21.17;;;13.93;;
13588;SDS011;6865;52.552;13.434;2024-03-02T12:33:14;22.40;;;15.07;;
13588;SDS011;6865;52.552;13.434;2024-03-02T12:35:41;19.13;;;13.27;;
13588;SDS011;6865;52.552;13.434;2024-03-02T12:38:08;17.53;;;13.80;;
13588;SDS011;6865;52.552;13.434;2024-03-02T12:40:37;17.80;;;12.93;;
13588;SDS011;6865;52.552;13.434;2024-03-02T12:43:04;20.27;;;14.43;;
13588;SDS011;6865;52.552;13.434;2024-03-02T12:45:31;20.50;;;15.13;;
13588;SDS011;6865;52.552;13.434;2024-03-02T12:47:59;18.50;;;13.95;;
13588;SDS011;6865;52.552;13.434;2024-03-02T12:50:26;20.20;;;13.20;;
13588;SDS011;6865;52.552;13.434;2024-03-02T12:52:53;18.67;;;13.18;;
13588;SDS011;6865;52.552;13.434;2024-03-02T12:55:21;18.40;;;14.07;;
13588;SDS011;6865;52.552;13.434;2024-03-02T12:57:52;19.00;;;14.07;;
13588;SDS011;6865;52.552;13.434;2024-03-02T13:00:20;17.90;;;13.73;;
13588;SDS011;6865;52.552;13.434;2024-03-02T13:02:48;20.58;;;13.43;;
13588;SDS011;6865;52.552;13.434;2024-03-02T13:05:17;20.25;;;14.15;;
13588;SDS011;6865;52.552;13.434;2024-03-02T13:07:46;18.10;;;11.90;;
13588;SDS011;6865;52.552;13.434;2024-03-02T13:10:13;17.37;;;12.53;;
13588;SDS011;6865;52.552;13.434;2024-03-02T13:12:40;18.10;;;12.90;;
13588;SDS011;6865;52.552;13.434;2024-03-02T13:15:08;18.40;;;13.52;;
13588;SDS011;6865;52.552;13.434;2024-03-02T13:17:38;14.23;;;11.50;;
13588;SDS011;6865;52.552;13.434;2024-03-02T13:20:06;17.73;;;13.17;;
13588;SDS011;6865;52.552;13.434;2024-03-02T13:22:34;15.70;;;12.10;;
13588;SDS011;6865;52.552;13.434;2024-03-02T13:25:02;21.35;;;14.02;;
13588;SDS011;6865;52.552;13.434;2024-03-02T13:27:31;18.23;;;13.10;;
13588;SDS011;6865;52.552;13.434;2024-03-02T13:29:58;18.07;;;12.77;;
13588;SDS011;6865;52.552;13.434;2024-03-02T13:32:25;15.52;;;11.35;;
13588;SDS011;6865;52.552;13.434;2024-03-02T13:34:52;16.23;;;12.25;;
13588;SDS011;6865;52.552;13.434;2024-03-02T13:37:19;17.27;;;12.17;;
13588;SDS011;6865;52.552;13.434;2024-03-02T13:39:46;18.17;;;11.43;;
13588;SDS011;6865;52.552;13.434;2024-03-02T13:42:13;14.53;;;11.17;;
13588;SDS011;6865;52.552;13.434;2024-03-02T13:44:44;18.70;;;12.97;;
13588;SDS011;6865;52.552;13.434;2024-03-02T13:47:13;18.97;;;13.40;;
13588;SDS011;6865;52.552;13.434;2024-03-02T13:49:40;18.13;;;13.60;;
13588;SDS011;6865;52.552;13.434;2024-03-02T13:52:10;16.27;;;12.53;;
13588;SDS011;6865;52.552;13.434;2024-03-02T13:54:39;19.70;;;13.13;;
13588;SDS011;6865;52.552;13.434;2024-03-02T13:57:08;17.83;;;12.77;;
13588;SDS011;6865;52.552;13.434;2024-03-02T13:59:38;18.63;;;12.63;;
13588;SDS011;6865;52.552;13.434;2024-03-02T14:02:06;16.37;;;12.87;;
13588;SDS011;6865;52.552;13.434;2024-03-02T14:04:35;15.35;;;11.43;;
13588;SDS011;6865;52.552;13.434;2024-03-02T14:07:04;17.73;;;11.73;;
13588;SDS011;6865;52.552;13.434;2024-03-02T14:09:35;15.73;;;12.37;;
13588;SDS011;6865;52.552;13.434;2024-03-02T14:12:03;16.83;;;12.30;;
13588;SDS011;6865;52.552;13.434;2024-03-02T14:14:31;14.93;;;10.80;;
13588;SDS011;6865;52.552;13.434;2024-03-02T14:16:57;16.83;;;9.50;;
13588;SDS011;6865;52.552;13.434;2024-03-02T14:19:29;17.38;;;10.63;;
13588;SDS011;6865;52.552;13.434;2024-03-02T14:21:57;11.97;;;9.90;;
13588;SDS011;6865;52.552;13.434;2024-03-02T14:24:24;12.63;;;9.57;;
13588;SDS011;6865;52.552;13.434;2024-03-02T14:26:52;14.95;;;10.55;;
13588;SDS011;6865;52.552;13.434;2024-03-02T14:29:28;13.57;;;10.83;;